Time;durP1;ratioP1;P1;durP2;ratioP2;P2;SDS_P1;SDS_P2;PMS_P1;PMS_P2;Temp;Humidity;BMP_temperature;BMP_pressure;BME280_temperature;BME280_humidity;BME280_pressure;Samples;Min_cycle;Max_cycle;Signal;HPM_P1;HPM_P2
2022/05/05 00:01:44;;;;;;;5.03;2.20;;;;;;;21.37;35.91;101901.69;5093615;28;20077;-62
2022/05/05 00:04:10;;;;;;;4.53;2.55;;;;;;;21.36;36.00;101906.16;5094007;28;20527;-62
2022/05/05 00:06:36;;;;;;;3.83;2.20;;;;;;;21.34;35.86;101910.72;5094231;28;20024;-61
2022/05/05 00:09:03;;;;;;;4.60;2.38;;;;;;;21.35;35.82;101906.28;5092973;28;20020;-61
2022/05/05 00:14:24;;;;;;;4.65;2.53;;;;;;;21.32;35.84;101906.50;5092923;28;20384;-61
2022/05/05 00:16:56;;;;;;;4.10;2.50;;;;;;;21.29;35.98;101910.22;5093702;28;20052;-61
2022/05/05 00:19:21;;;;;;;4.10;2.38;;;;;;;21.28;35.94;101905.88;5093853;28;20464;-62
2022/05/05 00:21:47;;;;;;;4.45;2.33;;;;;;;21.27;36.01;101906.00;5091842;28;20057;-62
2022/05/05 00:24:12;;;;;;;4.43;2.55;;;;;;;21.27;35.85;101906.00;5093594;28;20027;-60
2022/05/05 00:26:37;;;;;;;5.40;2.60;;;;;;;21.25;36.03;101911.44;5093952;28;20456;-60
2022/05/05 00:29:03;;;;;;;4.85;2.50;;;;;;;21.24;36.11;101903.59;5092661;28;20028;-61
2022/05/05 00:31:28;;;;;;;5.00;2.50;;;;;;;21.21;35.73;101907.34;5093813;28;20395;-61
2022/05/05 00:33:53;;;;;;;4.80;2.35;;;;;;;21.21;36.07;101907.34;5093427;28;20482;-61
2022/05/05 00:36:18;;;;;;;3.90;2.33;;;;;;;21.20;35.98;101913.59;5092724;28;20026;-61
2022/05/05 00:38:46;;;;;;;5.30;2.47;;;;;;;21.19;36.17;101904.81;5093434;28;20379;-61
2022/05/05 00:41:12;;;;;;;4.88;2.50;;;;;;;21.18;35.98;101910.22;5093323;28;20276;-60
2022/05/05 00:43:37;;;;;;;4.40;2.50;;;;;;;21.18;35.93;101907.59;5092759;28;20467;-61
2022/05/05 00:46:03;;;;;;;4.75;2.47;;;;;;;21.18;36.13;101902.28;5093151;28;20632;-61
2022/05/05 00:48:29;;;;;;;5.00;2.63;;;;;;;21.15;36.13;101891.91;5093443;28;20024;-61
2022/05/05 00:50:55;;;;;;;5.50;2.80;;;;;;;21.14;35.97;101903.47;5092224;28;20506;-61
2022/05/05 00:53:21;;;;;;;4.32;2.40;;;;;;;21.13;35.84;101905.28;5093597;28;20430;-61
2022/05/05 00:55:48;;;;;;;4.53;2.30;;;;;;;21.12;36.15;101908.88;5093443;28;20024;-61
2022/05/05 00:58:14;;;;;;;5.07;2.60;;;;;;;21.12;36.04;101910.69;5092499;28;20111;-61
2022/05/05 01:00:40;;;;;;;4.53;2.67;;;;;;;21.11;36.06;101909.00;5093330;28;20502;-61
2022/05/05 01:03:08;;;;;;;5.35;2.53;;;;;;;21.10;36.20;101907.34;5092846;28;20020;-61
2022/05/05 01:05:34;;;;;;;4.25;2.40;;;;;;;21.09;36.17;101911.78;5092252;28;20032;-61
2022/05/05 01:08:02;;;;;;;5.70;2.70;;;;;;;21.09;36.19;101905.63;5092980;28;20048;-61
2022/05/05 01:10:27;;;;;;;5.68;2.50;;;;;;;21.07;36.21;101911.06;5092451;28;20024;-62
2022/05/05 01:12:53;;;;;;;4.97;2.40;;;;;;;21.05;36.27;101907.69;5092649;28;20048;-62
2022/05/05 01:15:19;;;;;;;4.40;2.40;;;;;;;21.06;36.27;101911.19;5093149;28;20032;-61
2022/05/05 01:17:44;;;;;;;6.38;2.80;;;;;;;21.04;36.19;101903.34;5092220;28;20111;-61
2022/05/05 01:20:16;;;;;;;5.25;2.75;;;;;;;21.02;36.16;101905.28;5092670;28;20024;-61
2022/05/05 01:22:41;;;;;;;3.97;2.40;;;;;;;21.02;36.42;101902.63;5093131;28;20375;-61
2022/05/05 01:30:35;;;;;;;4.30;2.38;;;;;;;20.99;36.24;101898.38;5093233;28;20578;-61
2022/05/05 01:33:00;;;;;;;5.25;2.78;;;;;;;20.98;36.22;101893.22;5091644;28;20107;-62
2022/05/05 01:35:25;;;;;;;4.13;2.50;;;;;;;20.96;36.25;101898.63;5092968;28;20028;-62
2022/05/05 01:37:51;;;;;;;4.93;2.30;;;;;;;20.97;36.22;101902.13;5092382;28;20472;-61
2022/05/05 01:40:16;;;;;;;5.55;2.42;;;;;;;20.97;36.30;101900.31;5091460;28;20040;-61
2022/05/05 01:42:42;;;;;;;4.17;2.63;;;;;;;20.95;36.37;101894.31;5093424;28;20109;-62
2022/05/05 01:45:10;;;;;;;5.53;2.80;;;;;;;20.94;36.33;101892.59;5093419;28;20273;-62
2022/05/05 01:47:37;;;;;;;4.53;2.65;;;;;;;20.94;36.44;101902.38;5092450;28;20028;-64
2022/05/05 01:50:05;;;;;;;4.97;2.85;;;;;;;20.93;36.39;101901.50;5093066;28;20090;-65
2022/05/05 01:52:30;;;;;;;5.00;2.38;;;;;;;20.93;36.59;101906.81;5092039;28;20471;-61
2022/05/05 01:54:56;;;;;;;3.95;2.40;;;;;;;20.93;36.38;101903.31;5092348;28;20034;-62
2022/05/05 01:57:21;;;;;;;4.47;2.57;;;;;;;20.91;36.15;101903.44;5092701;28;20024;-62
2022/05/05 01:59:46;;;;;;;4.87;2.60;;;;;;;20.91;36.38;101911.41;5091773;28;20379;-61
2022/05/05 02:02:11;;;;;;;4.90;3.17;;;;;;;20.91;36.52;101905.25;5092402;28;20307;-62
2022/05/05 02:04:37;;;;;;;4.77;2.53;;;;;;;20.90;36.53;101908.84;5092829;28;20031;-61
2022/05/05 02:07:03;;;;;;;4.77;2.40;;;;;;;20.90;36.51;101906.22;5091633;28;20363;-61
2022/05/05 02:09:28;;;;;;;4.15;2.30;;;;;;;20.92;36.50;101909.56;5092548;28;20273;-61
2022/05/05 02:11:54;;;;;;;4.68;2.83;;;;;;;20.90;36.53;101908.84;5092128;28;20020;-61
2022/05/05 02:14:23;;;;;;;3.93;2.33;;;;;;;20.88;36.43;101911.63;5091807;28;20131;-61
2022/05/05 02:16:50;;;;;;;4.65;2.70;;;;;;;20.88;36.35;101914.28;5092316;28;20020;-61
2022/05/05 02:19:15;;;;;;;5.57;2.58;;;;;;;20.88;36.48;101914.28;5092415;28;20073;-61
2022/05/05 02:21:40;;;;;;;4.28;2.50;;;;;;;20.87;36.53;101906.44;5091740;28;20016;-61
2022/05/05 02:24:06;;;;;;;4.22;2.60;;;;;;;20.86;36.41;101907.41;5091963;28;20024;-61
2022/05/05 02:26:31;;;;;;;5.28;2.70;;;;;;;20.87;36.22;101915.25;5091301;28;20028;-61
2022/05/05 02:28:56;;;;;;;4.93;2.70;;;;;;;20.87;36.49;101914.38;5091077;28;20028;-61
2022/05/05 02:31:21;;;;;;;4.77;2.60;;;;;;;20.85;36.34;101911.84;5092522;28;20280;-62
2022/05/05 02:33:47;;;;;;;5.53;2.90;;;;;;;20.83;36.55;101911.13;5092511;28;20024;-62
2022/05/05 02:38:59;;;;;;;4.13;2.53;;;;;;;20.84;36.45;101915.50;5091936;28;20300;-62
2022/05/05 02:41:24;;;;;;;4.72;2.50;;;;;;;20.82;36.37;101912.09;5092132;28;20024;-62
2022/05/05 02:43:49;;;;;;;4.22;2.38;;;;;;;20.82;36.46;101909.44;5091990;28;20027;-62
2022/05/05 02:46:14;;;;;;;5.17;2.97;;;;;;;20.81;36.64;101911.25;5096000;28;20115;-62
2022/05/05 02:48:40;;;;;;;5.23;2.57;;;;;;;20.81;36.51;101907.78;5095920;28;20058;-62
2022/05/05 02:51:05;;;;;;;5.07;2.50;;;;;;;20.81;36.54;101915.72;5094697;28;20763;-62
2022/05/05 02:56:16;;;;;;;4.97;2.72;;;;;;;20.80;36.31;101911.38;5094895;28;20282;-62
2022/05/05 02:58:42;;;;;;;4.88;2.67;;;;;;;20.80;36.63;101916.66;5095584;28;20044;-62
2022/05/05 03:01:08;;;;;;;4.90;2.90;;;;;;;20.79;36.67;101913.19;5095363;28;20384;-62
2022/05/05 03:03:34;;;;;;;5.07;2.70;;;;;;;20.78;36.51;101914.13;5094843;28;20399;-62
2022/05/05 03:06:02;;;;;;;4.88;2.42;;;;;;;20.79;36.64;101913.19;5095202;28;20016;-62
2022/05/05 03:08:28;;;;;;;5.50;2.80;;;;;;;20.79;36.56;101914.97;5095244;28;20058;-62
2022/05/05 03:10:53;;;;;;;7.07;3.07;;;;;;;20.80;36.18;101911.38;5094479;28;20047;-62
2022/05/05 03:13:18;;;;;;;6.10;2.75;;;;;;;20.78;36.41;101910.66;5094942;28;20285;-62
2022/05/05 03:15:44;;;;;;;5.97;2.60;;;;;;;20.78;36.58;101905.34;5095253;28;20036;-62
2022/05/05 03:18:10;;;;;;;7.45;3.42;;;;;;;20.78;36.46;101905.34;5094048;28;20032;-62
2022/05/05 03:20:35;;;;;;;4.60;2.63;;;;;;;20.77;36.44;101909.78;5095000;28;20034;-62
2022/05/05 03:23:00;;;;;;;6.07;2.88;;;;;;;20.78;36.37;101913.31;5094832;28;20032;-62
2022/05/05 03:25:25;;;;;;;5.73;2.73;;;;;;;20.76;36.57;101910.75;5094471;28;20116;-62
2022/05/05 03:27:51;;;;;;;4.47;2.47;;;;;;;20.77;36.68;101922.19;5094818;28;20051;-62
2022/05/05 03:30:19;;;;;;;3.92;2.35;;;;;;;20.76;36.70;101913.41;5095041;28;20271;-62
2022/05/05 03:32:44;;;;;;;5.82;2.90;;;;;;;20.74;36.45;101917.97;5094225;28;20024;-61
2022/05/05 03:35:10;;;;;;;6.38;2.80;;;;;;;20.73;36.67;101916.28;5094536;28;20467;-62
2022/05/05 03:37:35;;;;;;;4.75;2.63;;;;;;;20.73;36.63;101916.28;5094807;28;20032;-61
2022/05/05 03:40:00;;;;;;;4.85;2.70;;;;;;;20.73;36.69;101918.06;5093933;28;20043;-62
2022/05/05 03:42:26;;;;;;;6.67;2.80;;;;;;;20.73;36.69;101923.38;5094769;28;20565;-61
2022/05/05 03:44:54;;;;;;;4.47;2.50;;;;;;;20.73;36.69;101920.72;5094398;28;20280;-61
2022/05/05 03:47:19;;;;;;;5.03;2.65;;;;;;;20.73;36.63;101920.72;5094017;28;20399;-61
2022/05/05 03:49:45;;;;;;;4.28;2.42;;;;;;;20.70;36.86;101919.16;5094589;28;20030;-61
2022/05/05 03:52:10;;;;;;;5.13;2.85;;;;;;;20.70;36.63;101927.13;5093532;28;20024;-61
2022/05/05 03:54:35;;;;;;;4.68;2.60;;;;;;;20.71;36.74;101926.16;5094377;28;20034;-61
2022/05/05 03:57:01;;;;;;;5.57;2.45;;;;;;;20.71;36.66;101933.25;5094204;28;20124;-61
2022/05/05 03:59:26;;;;;;;4.40;2.50;;;;;;;20.71;36.75;101938.53;5093560;28;20024;-62
2022/05/05 04:01:51;;;;;;;5.50;2.67;;;;;;;20.71;36.88;101933.25;5094091;28;20020;-61
2022/05/05 04:04:17;;;;;;;4.40;2.50;;;;;;;20.69;36.89;101940.47;5094226;28;20024;-61
2022/05/05 04:06:43;;;;;;;5.45;2.60;;;;;;;20.70;37.04;101942.19;5093490;28;20277;-61
2022/05/05 04:09:10;;;;;;;5.30;2.58;;;;;;;20.69;36.83;101936.00;5094178;28;20032;-62
2022/05/05 04:11:35;;;;;;;4.72;3.15;;;;;;;20.69;36.72;101940.47;5094284;28;20032;-61
2022/05/05 04:14:01;;;;;;;4.60;2.65;;;;;;;20.69;36.75;101943.97;5092796;28;20453;-61
2022/05/05 04:16:26;;;;;;;4.85;2.95;;;;;;;20.68;36.82;101947.59;5094092;28;20049;-61
2022/05/05 04:18:51;;;;;;;6.15;2.80;;;;;;;20.69;36.78;101951.06;5093775;28;20039;-61
2022/05/05 04:21:17;;;;;;;4.68;2.70;;;;;;;20.69;36.68;101951.06;5093131;28;20111;-61
2022/05/05 04:23:42;;;;;;;6.97;3.00;;;;;;;20.68;36.74;101949.38;5094066;28;20107;-61
2022/05/05 04:26:10;;;;;;;6.30;2.80;;;;;;;20.67;36.92;101950.34;5093785;28;20561;-62
2022/05/05 04:28:36;;;;;;;6.93;3.20;;;;;;;20.68;36.77;101949.38;5093209;28;20064;-62
2022/05/05 04:31:04;;;;;;;6.22;2.90;;;;;;;20.67;36.85;101953.00;5093358;28;20024;-62
2022/05/05 04:33:29;;;;;;;5.55;2.55;;;;;;;20.67;36.81;101959.13;5093691;28;20036;-62
2022/05/05 04:35:55;;;;;;;5.20;2.80;;;;;;;20.67;36.98;101953.84;5092557;28;20034;-62
2022/05/05 04:38:23;;;;;;;4.55;2.80;;;;;;;20.68;36.97;101959.97;5093525;28;20284;-62
2022/05/05 04:40:49;;;;;;;4.82;2.70;;;;;;;20.68;36.81;101962.63;5093546;28;20464;-62
2022/05/05 04:43:15;;;;;;;5.18;2.85;;;;;;;20.68;36.77;101965.25;5092914;28;20166;-62
2022/05/05 04:45:40;;;;;;;5.93;2.90;;;;;;;20.69;36.94;101966.97;5093547;28;20028;-62
2022/05/05 04:48:06;;;;;;;5.32;2.90;;;;;;;20.69;36.77;101961.66;5093264;28;20032;-62
2022/05/05 04:50:54;;;;;;;4.78;2.78;;;;;;;20.67;37.02;101959.13;5093062;28;20457;-61
2022/05/05 04:53:19;;;;;;;5.38;3.10;;;;;;;20.68;36.69;101965.25;5085337;28;20096;-61
2022/05/05 04:55:45;;;;;;;6.87;2.90;;;;;;;20.68;36.96;101971.44;5092640;28;20016;-61
2022/05/05 04:58:10;;;;;;;5.40;3.03;;;;;;;20.67;36.86;101974.19;5092882;28;20414;-61
2022/05/05 05:00:36;;;;;;;4.40;2.73;;;;;;;20.68;37.00;101970.56;5093293;28;20364;-61
2022/05/05 05:03:01;;;;;;;4.88;2.78;;;;;;;20.67;36.99;101974.19;5092111;28;20273;-61
2022/05/05 05:05:29;;;;;;;5.97;3.33;;;;;;;20.68;36.88;101973.22;5093322;28;20452;-61
2022/05/05 05:07:55;;;;;;;5.63;3.22;;;;;;;20.67;37.09;101977.69;5092399;28;20517;-60
2022/05/05 05:10:29;;;;;;;5.27;3.10;;;;;;;20.66;36.78;101975.97;5092309;28;20043;-60
2022/05/05 05:12:54;;;;;;;4.70;2.80;;;;;;;20.65;36.82;101985.72;5092560;28;20299;-61
2022/05/05 05:15:20;;;;;;;5.50;3.00;;;;;;;20.66;37.11;101983.91;5091228;28;20040;-61
2022/05/05 05:17:46;;;;;;;5.45;3.20;;;;;;;20.68;36.92;101991.75;5091894;28;20448;-61
2022/05/05 05:20:12;;;;;;;5.68;2.90;;;;;;;20.68;36.94;101992.63;5092740;28;20097;-61
2022/05/05 05:22:38;;;;;;;4.75;2.63;;;;;;;20.68;36.89;101997.06;5092707;28;20032;-61
2022/05/05 05:25:03;;;;;;;6.60;2.88;;;;;;;20.68;37.16;101992.63;5091241;28;20036;-61
2022/05/05 05:27:29;;;;;;;5.28;2.88;;;;;;;20.68;37.34;101997.91;5092984;28;20024;-61
2022/05/05 05:30:01;;;;;;;6.72;2.83;;;;;;;20.70;37.01;101995.16;5092465;28;20463;-62
2022/05/05 05:32:29;;;;;;;4.65;2.20;;;;;;;20.71;37.15;101994.19;5091860;28;20578;-61
2022/05/05 05:34:54;;;;;;;5.30;2.40;;;;;;;20.70;37.24;101997.81;5092591;28;20032;-61
2022/05/05 05:37:19;;;;;;;5.00;2.77;;;;;;;20.70;37.49;101993.34;5092694;28;20031;-61
2022/05/05 05:39:45;;;;;;;6.07;2.50;;;;;;;20.71;37.33;102002.13;5091884;28;20032;-62
2022/05/05 05:42:10;;;;;;;4.23;2.53;;;;;;;20.73;37.36;102001.06;5092354;28;20055;-62
2022/05/05 05:44:35;;;;;;;3.97;2.22;;;;;;;20.76;37.40;102005.25;5092213;28;20161;-62
2022/05/05 05:47:00;;;;;;;4.33;2.33;;;;;;;20.78;37.49;102009.50;5092092;28;20024;-61
2022/05/05 05:49:26;;;;;;;3.90;2.30;;;;;;;20.80;37.25;102009.38;5092449;28;20275;-61
2022/05/05 05:51:51;;;;;;;5.27;2.50;;;;;;;20.82;37.35;102007.47;5091634;28;20276;-61
2022/05/05 05:54:18;;;;;;;4.93;2.43;;;;;;;20.85;37.47;102012.53;5092731;28;20032;-61
2022/05/05 05:56:46;;;;;;;4.75;2.58;;;;;;;20.87;37.25;102010.63;5092631;28;20305;-61
2022/05/05 05:59:14;;;;;;;5.70;2.58;;;;;;;20.88;37.21;102011.47;5091552;28;20024;-60
2022/05/05 06:04:23;;;;;;;5.43;2.73;;;;;;;20.96;37.07;102011.75;5092894;28;20031;-61
2022/05/05 06:06:49;;;;;;;5.30;2.75;;;;;;;20.94;37.05;102018.97;5091491;28;20110;-61
2022/05/05 06:09:15;;;;;;;5.03;2.47;;;;;;;20.94;37.22;102021.63;5092508;28;20154;-62
2022/05/05 06:11:41;;;;;;;5.18;2.28;;;;;;;20.92;37.30;102024.38;5092265;28;20463;-61
2022/05/05 06:14:06;;;;;;;5.05;2.33;;;;;;;20.87;37.34;102023.88;5091033;28;20124;-63
2022/05/05 06:16:31;;;;;;;4.47;2.30;;;;;;;20.81;37.78;102022.53;5092302;28;20020;-60
2022/05/05 06:18:59;;;;;;;4.67;2.57;;;;;;;20.79;37.91;102019.16;5094752;28;20288;-63
2022/05/05 06:21:24;;;;;;;6.57;2.25;;;;;;;20.76;37.98;102027.31;5095420;28;20288;-65
2022/05/05 06:23:50;;;;;;;4.53;2.33;;;;;;;20.75;38.20;102024.78;5095945;28;20024;-63
2022/05/05 06:26:15;;;;;;;4.90;2.60;;;;;;;20.78;38.24;102025.41;5096768;28;20391;-65
2022/05/05 06:28:44;;;;;;;8.40;2.60;;;;;;;20.84;38.27;102024.13;5096074;28;20269;-66
2022/05/05 06:31:09;;;;;;;4.78;2.40;;;;;;;20.89;38.20;102029.91;5095678;28;20383;-66
2022/05/05 06:33:34;;;;;;;4.75;2.35;;;;;;;20.96;38.07;102031.13;5096128;28;20027;-65
2022/05/05 06:35:59;;;;;;;4.90;2.30;;;;;;;21.00;38.13;102031.75;5095012;28;20028;-61
2022/05/05 06:38:25;;;;;;;5.00;2.60;;;;;;;21.03;37.86;102031.53;5095847;28;20027;-62
2022/05/05 06:40:50;;;;;;;6.67;2.53;;;;;;;21.09;38.01;102033.69;5095277;28;20070;-65
2022/05/05 06:43:15;;;;;;;4.20;2.30;;;;;;;21.14;37.78;102031.56;5095638;28;20070;-64
2022/05/05 06:45:41;;;;;;;5.53;2.40;;;;;;;21.15;37.84;102033.25;5095535;28;20040;-64
2022/05/05 06:48:06;;;;;;;5.05;2.35;;;;;;;21.17;37.84;102028.69;5094814;28;20107;-63
2022/05/05 06:50:32;;;;;;;4.85;2.72;;;;;;;21.18;37.86;102029.53;5095735;28;20028;-64
2022/05/05 06:53:00;;;;;;;4.50;2.75;;;;;;;21.17;38.27;102034.00;5095255;28;20026;-61
2022/05/05 06:55:26;;;;;;;5.35;2.65;;;;;;;21.16;38.07;102034.09;5094720;28;20052;-63
2022/05/05 06:57:51;;;;;;;4.55;2.47;;;;;;;21.19;38.28;102036.53;5095315;28;20534;-62
2022/05/05 07:00:17;;;;;;;4.63;2.25;;;;;;;21.17;38.18;102039.28;5095524;28;20028;-61
2022/05/05 07:02:43;;;;;;;5.75;2.72;;;;;;;21.15;39.58;102037.69;5095052;28;20052;-63
2022/05/05 07:05:23;;;;;;;6.75;3.10;;;;;;;21.18;40.29;102046.25;5098233;28;20024;-65
2022/05/05 07:07:49;;;;;;;7.25;3.05;;;;;;;21.25;40.73;102046.63;5095720;28;20028;-68
2022/05/05 07:12:58;;;;;;;7.43;3.40;;;;;;;21.40;40.77;102055.25;5095382;28;20047;-62
2022/05/05 07:15:23;;;;;;;9.10;5.10;;;;;;;21.43;39.72;102057.66;5095480;28;20036;-60
2022/05/05 07:17:51;;;;;;;11.55;5.93;;;;;;;21.46;39.25;102061.88;5094173;28;20647;-62
2022/05/05 07:20:17;;;;;;;9.43;4.75;;;;;;;21.50;39.40;102063.38;5095416;28;20131;-64
2022/05/05 07:22:42;;;;;;;9.38;4.53;;;;;;;21.52;39.91;102056.13;5094957;28;20059;-66
2022/05/05 07:25:08;;;;;;;8.85;4.05;;;;;;;21.58;40.11;102065.44;5093770;28;20040;-64
2022/05/05 07:27:34;;;;;;;8.60;4.30;;;;;;;21.64;40.06;102068.47;5095085;28;20028;-68
2022/05/05 07:29:59;;;;;;;8.23;4.10;;;;;;;21.70;39.88;102075.13;5094012;28;20028;-67
2022/05/05 07:32:24;;;;;;;8.68;4.10;;;;;;;21.74;40.27;102068.59;5094253;28;20703;-68
2022/05/05 07:34:50;;;;;;;7.40;3.60;;;;;;;21.78;40.18;102069.19;5094691;28;20024;-67
2022/05/05 07:37:15;;;;;;;9.80;3.80;;;;;;;21.83;40.06;102072.34;5094010;28;20031;-67
2022/05/05 07:39:40;;;;;;;6.57;3.60;;;;;;;21.84;40.28;102072.22;5094654;28;20418;-68
2022/05/05 07:42:06;;;;;;;6.68;3.42;;;;;;;21.87;40.22;102073.78;5094628;28;20050;-63
2022/05/05 07:44:32;;;;;;;6.63;4.25;;;;;;;21.90;40.34;102077.06;5094051;28;20032;-65
2022/05/05 07:46:58;;;;;;;8.38;4.07;;;;;;;21.90;40.34;102074.41;5094326;28;20028;-65
2022/05/05 07:49:25;;;;;;;8.10;4.13;;;;;;;21.93;40.27;102081.28;5094592;28;20047;-65
2022/05/05 07:51:52;;;;;;;8.38;3.60;;;;;;;21.95;40.09;102078.50;5093382;28;20032;-66
2022/05/05 07:54:42;;;;;;;6.88;3.70;;;;;;;22.00;40.54;102086.94;5094720;28;20032;-67
2022/05/05 07:57:08;;;;;;;8.02;3.92;;;;;;;22.02;40.13;102075.25;5093976;28;20035;-69
2022/05/05 07:59:37;;;;;;;7.13;3.53;;;;;;;22.04;40.30;102081.28;5093718;28;20085;-64
2022/05/05 08:02:03;;;;;;;7.22;3.80;;;;;;;22.05;40.30;102085.63;5093528;28;20032;-66
2022/05/05 08:04:29;;;;;;;8.43;4.90;;;;;;;22.07;40.19;102089.00;5094111;28;20113;-67
2022/05/05 08:06:54;;;;;;;13.70;8.85;;;;;;;21.99;39.08;102083.44;5093200;28;20067;-67
2022/05/05 08:09:20;;;;;;;11.10;7.40;;;;;;;21.93;39.65;102083.94;5094541;28;20020;-64
2022/05/05 08:11:45;;;;;;;11.93;5.45;;;;;;;21.96;39.89;102090.81;5093917;28;20487;-63
2022/05/05 08:14:11;;;;;;;9.15;4.85;;;;;;;22.00;40.02;102093.13;5092833;28;20119;-65
2022/05/05 08:16:36;;;;;;;7.32;4.22;;;;;;;22.02;40.12;102091.16;5093998;28;20020;-63
2022/05/05 08:19:02;;;;;;;7.63;4.00;;;;;;;22.07;40.00;102090.81;5093472;28;20032;-63
2022/05/05 08:21:27;;;;;;;7.53;3.88;;;;;;;22.09;40.16;102094.19;5093161;28;20116;-63
2022/05/05 08:29:20;;;;;;;7.28;3.90;;;;;;;22.15;40.16;102091.03;5094089;28;20054;-65
2022/05/05 08:31:45;;;;;;;7.90;3.87;;;;;;;22.16;39.89;102098.06;5093916;28;20095;-62
2022/05/05 08:34:14;;;;;;;8.27;4.17;;;;;;;22.18;40.23;102108.56;5092753;28;20276;-61
2022/05/05 08:36:39;;;;;;;9.73;4.25;;;;;;;22.18;40.07;102104.09;5093435;28;20818;-62
2022/05/05 08:39:04;;;;;;;8.40;4.00;;;;;;;22.19;40.00;102105.78;5093231;28;20115;-64
2022/05/05 08:41:31;;;;;;;8.37;3.90;;;;;;;22.17;40.18;102109.50;5091928;28;20109;-66
2022/05/05 08:43:57;;;;;;;11.13;4.30;;;;;;;22.17;40.07;102106.84;5093206;28;20356;-65
2022/05/05 08:46:26;;;;;;;7.95;4.13;;;;;;;22.14;39.95;102121.19;5093727;28;20048;-63
2022/05/05 08:48:57;;;;;;;7.05;4.35;;;;;;;22.13;40.27;102119.53;5092615;28;20035;-60
2022/05/05 08:51:26;;;;;;;10.80;4.20;;;;;;;22.12;39.87;102122.31;5093743;28;20030;-59
2022/05/05 08:53:53;;;;;;;7.75;4.03;;;;;;;22.08;40.02;102117.25;5093135;28;20488;-61
2022/05/05 08:56:18;;;;;;;13.93;5.78;;;;;;;22.08;40.04;102117.25;5094796;28;20107;-64
2022/05/05 08:58:47;;;;;;;7.65;4.13;;;;;;;22.10;40.23;102117.94;5094789;28;20032;-64
2022/05/05 09:01:12;;;;;;;8.55;4.95;;;;;;;22.12;39.98;102120.50;5093225;28;20055;-63
2022/05/05 09:03:37;;;;;;;9.13;4.50;;;;;;;22.10;39.98;102117.94;5092792;28;20055;-62
2022/05/05 09:06:08;;;;;;;9.13;5.07;;;;;;;22.09;39.78;102124.22;5095235;28;20039;-63
2022/05/05 09:08:34;;;;;;;12.98;6.05;;;;;;;22.07;39.63;102126.16;5093759;28;20287;-65
2022/05/05 09:11:05;;;;;;;8.75;6.32;;;;;;;22.00;39.70;102126.75;5093061;28;20472;-66
2022/05/05 09:13:36;;;;;;;9.73;5.22;;;;;;;21.96;39.97;102125.31;5093477;28;20051;-66
2022/05/05 09:16:03;;;;;;;9.93;5.03;;;;;;;21.96;39.95;102120.84;5092804;28;20531;-65
2022/05/05 09:18:31;;;;;;;9.13;5.20;;;;;;;22.00;39.68;102129.41;5094792;28;20111;-65
2022/05/05 09:20:58;;;;;;;9.18;5.28;;;;;;;22.02;39.61;102132.81;5095234;28;20024;-63
2022/05/05 09:23:28;;;;;;;10.25;5.18;;;;;;;22.04;39.78;102136.19;5092982;28;20161;-62
2022/05/05 09:25:54;;;;;;;10.85;6.57;;;;;;;22.02;39.50;102140.78;5093085;28;20035;-63
2022/05/05 09:28:20;;;;;;;12.75;8.63;;;;;;;22.02;39.60;102136.28;5093230;28;20031;-65
2022/05/05 09:30:47;;;;;;;8.43;5.88;;;;;;;22.04;39.67;102138.84;5092541;28;20037;-65
2022/05/05 09:33:17;;;;;;;10.63;5.35;;;;;;;22.05;39.57;102135.22;5094702;28;20538;-64
2022/05/05 09:35:44;;;;;;;10.00;5.63;;;;;;;22.05;39.34;102140.53;5092528;28;20043;-64
2022/05/05 09:38:09;;;;;;;8.50;5.13;;;;;;;22.06;39.73;102143.06;5092246;28;20032;-61
2022/05/05 09:40:34;;;;;;;11.85;4.60;;;;;;;22.09;39.75;102141.97;5092994;28;20024;-62
2022/05/05 09:43:01;;;;;;;8.48;4.40;;;;;;;22.12;39.61;102143.56;5092664;28;20020;-63
2022/05/05 09:45:40;;;;;;;8.27;4.53;;;;;;;22.12;39.57;102149.69;5092120;28;20032;-61
2022/05/05 09:48:06;;;;;;;7.93;4.15;;;;;;;22.14;39.38;102145.09;5092461;28;20036;-62
2022/05/05 09:50:38;;;;;;;9.00;4.50;;;;;;;22.14;39.56;102147.75;5092699;28;20051;-61
2022/05/05 09:58:40;;;;;;;11.73;4.95;;;;;;;22.16;39.54;102152.94;5096296;28;20403;-61
2022/05/05 10:01:10;;;;;;;11.15;7.45;;;;;;;22.14;39.01;102150.41;5093659;28;20093;-64
2022/05/05 10:06:26;;;;;;;8.88;5.55;;;;;;;22.13;39.43;102158.50;5096030;28;20123;-66
2022/05/05 10:08:56;;;;;;;9.50;4.95;;;;;;;22.12;39.28;102155.00;5096502;28;20039;-64
2022/05/05 10:11:22;;;;;;;6.40;4.40;;;;;;;22.12;39.58;102154.16;5096704;28;20531;-62
2022/05/05 10:13:49;;;;;;;7.18;3.90;;;;;;;22.12;39.51;102160.31;5095640;28;20048;-61
2022/05/05 10:16:17;;;;;;;10.13;4.63;;;;;;;22.12;39.35;102155.00;5096636;28;20031;-64
2022/05/05 10:18:42;;;;;;;9.40;6.05;;;;;;;22.12;39.35;102155.00;5096413;28;20051;-63
2022/05/05 10:21:22;;;;;;;12.55;7.80;;;;;;;22.14;39.47;102157.53;5095312;28;20121;-62
2022/05/05 10:24:00;;;;;;;11.70;10.10;;;;;;;22.13;39.68;102159.34;5096315;28;20017;-63
2022/05/05 10:26:26;;;;;;;13.77;12.38;;;;;;;22.14;39.88;102154.88;5095861;28;20432;-63
2022/05/05 10:28:52;;;;;;;17.38;15.02;;;;;;;22.13;40.30;102150.53;5096100;28;20073;-62
2022/05/05 10:31:29;;;;;;;21.98;18.83;;;;;;;22.14;40.03;102157.53;5095674;28;20032;-61
2022/05/05 10:34:06;;;;;;;22.73;20.52;;;;;;;22.13;39.88;102153.19;5095177;28;20035;-61
2022/05/05 10:36:33;;;;;;;26.90;23.52;;;;;;;22.12;40.10;102154.16;5095760;28;20036;-61
2022/05/05 10:38:58;;;;;;;27.92;25.30;;;;;;;22.10;40.20;102155.13;5095784;28;20036;-61
2022/05/05 10:41:30;;;;;;;30.55;27.38;;;;;;;22.09;39.75;102153.41;5095517;28;20103;-62
2022/05/05 10:44:19;;;;;;;28.85;24.77;;;;;;;22.03;39.00;102158.38;5095540;28;20035;-63
2022/05/05 10:46:50;;;;;;;25.15;22.55;;;;;;;21.98;40.24;102155.22;5095772;28;20488;-64
2022/05/05 10:49:47;;;;;;;25.27;22.77;;;;;;;21.96;40.55;102154.50;5095157;28;20442;-61
2022/05/05 10:52:21;;;;;;;26.23;23.70;;;;;;;21.98;40.43;102155.22;5079050;28;20036;-63
2022/05/05 10:54:48;;;;;;;26.48;23.88;;;;;;;22.01;40.61;102155.00;5095068;28;20115;-63
2022/05/05 10:57:26;;;;;;;26.15;23.45;;;;;;;21.99;40.69;102160.41;5095905;28;20024;-63
2022/05/05 11:00:10;;;;;;;27.00;24.33;;;;;;;21.99;40.28;102157.78;5095416;28;20024;-66
2022/05/05 11:02:54;;;;;;;25.58;23.08;;;;;;;22.01;40.34;102166.44;5095016;28;20352;-65
2022/05/05 11:05:29;;;;;;;25.20;22.85;;;;;;;22.01;40.68;102157.66;5094766;28;20056;-64
2022/05/05 11:08:07;;;;;;;25.60;23.08;;;;;;;22.00;40.50;102161.25;5095865;28;20028;-65
2022/05/05 11:13:49;;;;;;;23.40;21.08;;;;;;;22.02;40.32;102159.34;5095859;28;20093;-65
2022/05/05 11:22:14;;;;;;;23.70;20.08;;;;;;;22.01;40.54;102161.13;5094635;28;20387;-63
2022/05/05 11:24:45;;;;;;;21.40;19.42;;;;;;;22.00;40.55;102156.81;5095349;28;20076;-62
2022/05/05 11:27:12;;;;;;;21.52;19.52;;;;;;;22.01;40.48;102152.34;5094977;28;20031;-62
2022/05/05 11:29:40;;;;;;;22.33;20.02;;;;;;;21.99;40.33;102155.13;5094379;28;20384;-62
2022/05/05 11:32:08;;;;;;;20.38;18.55;;;;;;;21.99;40.55;102156.94;5094713;28;20027;-63
2022/05/05 11:34:45;;;;;;;21.45;19.35;;;;;;;21.99;40.76;102157.78;5094727;28;20032;-63
2022/05/05 11:37:11;;;;;;;20.77;18.77;;;;;;;21.99;40.68;102154.28;5094036;28;20028;-63
2022/05/05 11:39:38;;;;;;;19.45;17.65;;;;;;;21.97;40.71;102157.06;5094723;28;20032;-63
2022/05/05 11:42:05;;;;;;;19.65;17.63;;;;;;;21.99;40.55;102156.94;5094675;28;20016;-63
2022/05/05 11:44:32;;;;;;;18.80;17.00;;;;;;;21.97;40.66;102151.75;5093897;28;20397;-63
2022/05/05 11:47:07;;;;;;;19.40;17.58;;;;;;;21.95;40.42;102148.34;5094394;28;20074;-63
2022/05/05 11:49:39;;;;;;;18.77;16.83;;;;;;;21.96;40.52;102143.91;5094779;28;20051;-63
2022/05/05 11:52:05;;;;;;;19.10;17.30;;;;;;;21.96;40.43;102147.38;5093576;28;20021;-63
2022/05/05 11:54:34;;;;;;;18.63;16.83;;;;;;;;;;5094500;28;20024;-63
2022/05/05 11:57:01;;;;;;;17.63;15.95;;;;;;;21.96;40.38;102144.72;5094129;28;20031;-63
2022/05/05 12:02:23;;;;;;;16.50;14.80;;;;;;;21.95;40.64;102144.84;5094123;28;20086;-63
2022/05/05 12:04:53;;;;;;;17.02;15.20;;;;;;;21.93;40.37;102143.16;5093385;28;20459;-63
2022/05/05 12:07:20;;;;;;;16.73;15.00;;;;;;;21.93;40.63;102144.97;5094416;28;20020;-64
2022/05/05 12:09:50;;;;;;;17.70;15.95;;;;;;;21.92;40.57;102145.91;5094294;28;20043;-66